sensor_id;sensor_type;location;lat;lon;timestamp;P1;durP1;ratioP1;P2;durP2;ratioP2
50853;SDS011;44154;45.506;-122.806;2023-04-25T00:00:03;13.63;;;7.35;;
50853;SDS011;44154;45.506;-122.806;2023-04-25T00:02:32;11.73;;;7.60;;
50853;SDS011;44154;45.506;-122.806;2023-04-25T00:05:00;10.70;;;7.13;;
50853;SDS011;44154;45.506;-122.806;2023-04-25T00:07:27;9.35;;;6.55;;
50853;SDS011;44154;45.506;-122.806;2023-04-25T00:09:53;10.98;;;7.30;;
50853;SDS011;44154;45.506;-122.806;2023-04-25T00:12:19;13.10;;;7.15;;
50853;SDS011;44154;45.506;-122.806;2023-04-25T00:14:48;10.75;;;6.30;;
50853;SDS011;44154;45.506;-122.806;2023-04-25T00:17:15;13.77;;;6.80;;
50853;SDS011;44154;45.506;-122.806;2023-04-25T00:19:44;13.32;;;7.18;;
50853;SDS011;44154;45.506;-122.806;2023-04-25T00:22:12;11.25;;;6.05;;
50853;SDS011;44154;45.506;-122.806;2023-04-25T00:24:38;11.45;;;5.72;;
50853;SDS011;44154;45.506;-122.806;2023-04-25T00:27:04;11.18;;;5.70;;
50853;SDS011;44154;45.506;-122.806;2023-04-25T00:29:31;14.80;;;6.82;;
50853;SDS011;44154;45.506;-122.806;2023-04-25T00:31:57;9.35;;;5.85;;
50853;SDS011;44154;45.506;-122.806;2023-04-25T00:34:23;9.25;;;5.95;;
50853;SDS011;44154;45.506;-122.806;2023-04-25T00:36:49;9.27;;;5.88;;
50853;SDS011;44154;45.506;-122.806;2023-04-25T00:39:15;7.80;;;5.18;;
50853;SDS011;44154;45.506;-122.806;2023-04-25T00:41:41;8.50;;;4.72;;
50853;SDS011;44154;45.506;-122.806;2023-04-25T00:44:08;10.65;;;4.90;;
50853;SDS011;44154;45.506;-122.806;2023-04-25T00:46:38;8.20;;;5.78;;
50853;SDS011;44154;45.506;-122.806;2023-04-25T00:49:05;8.00;;;4.70;;
50853;SDS011;44154;45.506;-122.806;2023-04-25T00:51:31;9.63;;;5.30;;
50853;SDS011;44154;45.506;-122.806;2023-04-25T00:53:58;8.32;;;5.15;;
50853;SDS011;44154;45.506;-122.806;2023-04-25T00:56:25;8.25;;;4.60;;
50853;SDS011;44154;45.506;-122.806;2023-04-25T00:58:52;7.60;;;4.68;;
50853;SDS011;44154;45.506;-122.806;2023-04-25T01:01:21;8.93;;;5.10;;
50853;SDS011;44154;45.506;-122.806;2023-04-25T01:03:48;7.63;;;4.95;;
50853;SDS011;44154;45.506;-122.806;2023-04-25T01:06:16;6.60;;;3.70;;
50853;SDS011;44154;45.506;-122.806;2023-04-25T01:08:42;7.55;;;3.63;;
50853;SDS011;44154;45.506;-122.806;2023-04-25T01:11:09;4.57;;;2.97;;
50853;SDS011;44154;45.506;-122.806;2023-04-25T01:13:35;10.35;;;2.92;;
50853;SDS011;44154;45.506;-122.806;2023-04-25T01:16:02;6.63;;;3.17;;
50853;SDS011;44154;45.506;-122.806;2023-04-25T01:18:28;4.93;;;3.15;;
50853;SDS011;44154;45.506;-122.806;2023-04-25T01:20:54;6.10;;;2.85;;
50853;SDS011;44154;45.506;-122.806;2023-04-25T01:23:21;21.50;;;3.47;;
50853;SDS011;44154;45.506;-122.806;2023-04-25T01:25:48;8.35;;;3.70;;
50853;SDS011;44154;45.506;-122.806;2023-04-25T01:28:16;9.30;;;3.90;;
50853;SDS011;44154;45.506;-122.806;2023-04-25T01:30:42;5.47;;;3.03;;
50853;SDS011;44154;45.506;-122.806;2023-04-25T01:33:09;12.88;;;3.97;;
50853;SDS011;44154;45.506;-122.806;2023-04-25T01:35:37;10.52;;;3.50;;
50853;SDS011;44154;45.506;-122.806;2023-04-25T01:38:03;13.25;;;4.07;;
50853;SDS011;44154;45.506;-122.806;2023-04-25T01:40:29;12.93;;;3.65;;
50853;SDS011;44154;45.506;-122.806;2023-04-25T01:42:57;10.30;;;3.55;;
50853;SDS011;44154;45.506;-122.806;2023-04-25T01:45:23;9.73;;;2.80;;
50853;SDS011;44154;45.506;-122.806;2023-04-25T01:47:49;7.50;;;3.13;;
50853;SDS011;44154;45.506;-122.806;2023-04-25T01:50:16;13.15;;;3.15;;
50853;SDS011;44154;45.506;-122.806;2023-04-25T01:52:43;7.55;;;2.47;;
50853;SDS011;44154;45.506;-122.806;2023-04-25T01:55:10;6.95;;;2.70;;
50853;SDS011;44154;45.506;-122.806;2023-04-25T01:57:36;6.63;;;2.92;;
50853;SDS011;44154;45.506;-122.806;2023-04-25T02:00:04;5.47;;;2.78;;
50853;SDS011;44154;45.506;-122.806;2023-04-25T02:02:32;6.05;;;2.47;;
50853;SDS011;44154;45.506;-122.806;2023-04-25T02:04:58;8.98;;;2.92;;
50853;SDS011;44154;45.506;-122.806;2023-04-25T02:07:25;8.38;;;3.05;;
50853;SDS011;44154;45.506;-122.806;2023-04-25T02:09:52;6.03;;;2.47;;
50853;SDS011;44154;45.506;-122.806;2023-04-25T02:12:18;8.32;;;2.60;;
50853;SDS011;44154;45.506;-122.806;2023-04-25T02:14:44;5.97;;;2.67;;
50853;SDS011;44154;45.506;-122.806;2023-04-25T02:17:10;5.88;;;2.83;;
50853;SDS011;44154;45.506;-122.806;2023-04-25T02:19:37;5.40;;;2.33;;
50853;SDS011;44154;45.506;-122.806;2023-04-25T02:22:05;7.13;;;2.60;;
50853;SDS011;44154;45.506;-122.806;2023-04-25T02:24:32;4.93;;;2.78;;
50853;SDS011;44154;45.506;-122.806;2023-04-25T02:26:59;6.15;;;2.60;;
50853;SDS011;44154;45.506;-122.806;2023-04-25T02:29:25;5.88;;;2.78;;
50853;SDS011;44154;45.506;-122.806;2023-04-25T02:31:51;5.97;;;2.55;;
50853;SDS011;44154;45.506;-122.806;2023-04-25T02:34:17;7.00;;;2.78;;
50853;SDS011;44154;45.506;-122.806;2023-04-25T02:36:43;7.78;;;3.10;;
50853;SDS011;44154;45.506;-122.806;2023-04-25T02:39:10;8.52;;;3.05;;
50853;SDS011;44154;45.506;-122.806;2023-04-25T02:41:36;8.27;;;2.60;;
50853;SDS011;44154;45.506;-122.806;2023-04-25T02:44:02;7.80;;;2.15;;
50853;SDS011;44154;45.506;-122.806;2023-04-25T02:46:29;7.30;;;2.75;;
50853;SDS011;44154;45.506;-122.806;2023-04-25T02:48:55;5.45;;;2.33;;
50853;SDS011;44154;45.506;-122.806;2023-04-25T02:51:21;7.22;;;2.60;;
50853;SDS011;44154;45.506;-122.806;2023-04-25T02:53:47;5.82;;;2.25;;
50853;SDS011;44154;45.506;-122.806;2023-04-25T02:56:13;6.45;;;2.10;;
50853;SDS011;44154;45.506;-122.806;2023-04-25T02:58:39;9.57;;;2.33;;
50853;SDS011;44154;45.506;-122.806;2023-04-25T03:01:06;7.15;;;2.30;;
50853;SDS011;44154;45.506;-122.806;2023-04-25T03:03:32;6.63;;;2.10;;
50853;SDS011;44154;45.506;-122.806;2023-04-25T03:05:58;5.30;;;2.20;;
50853;SDS011;44154;45.506;-122.806;2023-04-25T03:08:24;5.45;;;2.30;;
50853;SDS011;44154;45.506;-122.806;2023-04-25T03:10:54;7.15;;;1.98;;
50853;SDS011;44154;45.506;-122.806;2023-04-25T03:13:20;9.18;;;2.50;;
50853;SDS011;44154;45.506;-122.806;2023-04-25T03:15:47;8.50;;;2.22;;
50853;SDS011;44154;45.506;-122.806;2023-04-25T03:18:13;5.97;;;2.45;;
50853;SDS011;44154;45.506;-122.806;2023-04-25T03:20:39;7.55;;;2.40;;
50853;SDS011;44154;45.506;-122.806;2023-04-25T03:23:07;6.90;;;2.08;;
50853;SDS011;44154;45.506;-122.806;2023-04-25T03:25:33;7.80;;;2.65;;
50853;SDS011;44154;45.506;-122.806;2023-04-25T03:27:59;8.82;;;2.35;;
50853;SDS011;44154;45.506;-122.806;2023-04-25T03:30:25;8.85;;;2.60;;
50853;SDS011;44154;45.506;-122.806;2023-04-25T03:32:51;5.22;;;2.45;;
50853;SDS011;44154;45.506;-122.806;2023-04-25T03:35:18;5.28;;;1.77;;
50853;SDS011;44154;45.506;-122.806;2023-04-25T03:37:44;6.05;;;2.15;;
50853;SDS011;44154;45.506;-122.806;2023-04-25T03:40:11;4.50;;;1.88;;
50853;SDS011;44154;45.506;-122.806;2023-04-25T03:42:37;6.85;;;2.10;;
50853;SDS011;44154;45.506;-122.806;2023-04-25T03:45:03;5.65;;;1.63;;
50853;SDS011;44154;45.506;-122.806;2023-04-25T03:47:30;7.13;;;2.20;;
50853;SDS011;44154;45.506;-122.806;2023-04-25T03:49:56;4.47;;;2.50;;
50853;SDS011;44154;45.506;-122.806;2023-04-25T03:52:22;6.25;;;2.08;;
50853;SDS011;44154;45.506;-122.806;2023-04-25T03:54:49;4.63;;;1.83;;
50853;SDS011;44154;45.506;-122.806;2023-04-25T03:57:15;5.28;;;2.08;;
50853;SDS011;44154;45.506;-122.806;2023-04-25T03:59:41;4.97;;;2.15;;
50853;SDS011;44154;45.506;-122.806;2023-04-25T04:02:07;4.03;;;1.95;;
50853;SDS011;44154;45.506;-122.806;2023-04-25T04:04:33;5.78;;;2.13;;
50853;SDS011;44154;45.506;-122.806;2023-04-25T04:06:59;4.35;;;1.90;;
50853;SDS011;44154;45.506;-122.806;2023-04-25T04:09:26;4.65;;;2.13;;
50853;SDS011;44154;45.506;-122.806;2023-04-25T04:11:53;4.13;;;2.10;;
50853;SDS011;44154;45.506;-122.806;2023-04-25T04:14:19;7.00;;;2.40;;
50853;SDS011;44154;45.506;-122.806;2023-04-25T04:16:45;5.30;;;2.10;;
50853;SDS011;44154;45.506;-122.806;2023-04-25T04:19:11;5.10;;;2.38;;
50853;SDS011;44154;45.506;-122.806;2023-04-25T04:21:37;5.28;;;2.50;;
50853;SDS011;44154;45.506;-122.806;2023-04-25T04:24:04;5.55;;;2.17;;
50853;SDS011;44154;45.506;-122.806;2023-04-25T04:26:31;5.10;;;2.75;;
50853;SDS011;44154;45.506;-122.806;2023-04-25T04:28:59;4.72;;;2.63;;
50853;SDS011;44154;45.506;-122.806;2023-04-25T04:31:26;5.25;;;2.70;;
50853;SDS011;44154;45.506;-122.806;2023-04-25T04:33:52;7.13;;;2.75;;
50853;SDS011;44154;45.506;-122.806;2023-04-25T04:36:18;6.25;;;2.85;;
50853;SDS011;44154;45.506;-122.806;2023-04-25T04:38:47;5.75;;;2.78;;
50853;SDS011;44154;45.506;-122.806;2023-04-25T04:41:13;5.82;;;2.78;;
50853;SDS011;44154;45.506;-122.806;2023-04-25T04:43:39;4.97;;;2.70;;
50853;SDS011;44154;45.506;-122.806;2023-04-25T04:46:06;5.75;;;2.83;;
50853;SDS011;44154;45.506;-122.806;2023-04-25T04:48:32;12.13;;;9.70;;
50853;SDS011;44154;45.506;-122.806;2023-04-25T04:50:59;13.27;;;10.55;;
50853;SDS011;44154;45.506;-122.806;2023-04-25T04:53:25;12.20;;;10.60;;
50853;SDS011;44154;45.506;-122.806;2023-04-25T04:55:52;13.45;;;12.15;;
50853;SDS011;44154;45.506;-122.806;2023-04-25T04:58:18;11.95;;;9.80;;
50853;SDS011;44154;45.506;-122.806;2023-04-25T05:00:45;12.63;;;10.05;;
50853;SDS011;44154;45.506;-122.806;2023-04-25T05:03:11;13.38;;;11.93;;
50853;SDS011;44154;45.506;-122.806;2023-04-25T05:05:38;14.55;;;12.50;;
50853;SDS011;44154;45.506;-122.806;2023-04-25T05:08:05;14.27;;;12.77;;
50853;SDS011;44154;45.506;-122.806;2023-04-25T05:10:32;14.02;;;11.60;;
50853;SDS011;44154;45.506;-122.806;2023-04-25T05:12:58;13.27;;;10.52;;
50853;SDS011;44154;45.506;-122.806;2023-04-25T05:15:24;11.57;;;10.43;;
50853;SDS011;44154;45.506;-122.806;2023-04-25T05:17:50;12.27;;;9.95;;
50853;SDS011;44154;45.506;-122.806;2023-04-25T05:20:17;10.88;;;9.75;;
50853;SDS011;44154;45.506;-122.806;2023-04-25T05:22:44;11.50;;;10.18;;
50853;SDS011;44154;45.506;-122.806;2023-04-25T05:25:10;11.60;;;10.20;;
50853;SDS011;44154;45.506;-122.806;2023-04-25T05:27:37;13.05;;;11.52;;
50853;SDS011;44154;45.506;-122.806;2023-04-25T05:30:03;11.90;;;10.25;;
50853;SDS011;44154;45.506;-122.806;2023-04-25T05:32:30;13.07;;;10.18;;
50853;SDS011;44154;45.506;-122.806;2023-04-25T05:34:56;11.80;;;9.77;;
50853;SDS011;44154;45.506;-122.806;2023-04-25T05:37:23;11.85;;;10.02;;
50853;SDS011;44154;45.506;-122.806;2023-04-25T05:39:49;12.30;;;10.38;;
50853;SDS011;44154;45.506;-122.806;2023-04-25T05:42:15;11.73;;;10.07;;
50853;SDS011;44154;45.506;-122.806;2023-04-25T05:44:41;11.88;;;9.65;;
50853;SDS011;44154;45.506;-122.806;2023-04-25T05:47:07;13.05;;;9.77;;
50853;SDS011;44154;45.506;-122.806;2023-04-25T05:49:34;11.85;;;10.23;;
50853;SDS011;44154;45.506;-122.806;2023-04-25T05:52:00;22.95;;;20.80;;
50853;SDS011;44154;45.506;-122.806;2023-04-25T05:54:26;15.13;;;13.60;;
50853;SDS011;44154;45.506;-122.806;2023-04-25T05:56:52;12.88;;;11.57;;
50853;SDS011;44154;45.506;-122.806;2023-04-25T05:59:18;13.02;;;11.55;;
50853;SDS011;44154;45.506;-122.806;2023-04-25T06:01:45;12.43;;;11.13;;
50853;SDS011;44154;45.506;-122.806;2023-04-25T06:04:12;12.60;;;10.88;;
50853;SDS011;44154;45.506;-122.806;2023-04-25T06:06:38;12.93;;;11.25;;
50853;SDS011;44154;45.506;-122.806;2023-04-25T06:09:04;14.07;;;12.18;;
50853;SDS011;44154;45.506;-122.806;2023-04-25T06:11:31;13.77;;;11.32;;
50853;SDS011;44154;45.506;-122.806;2023-04-25T06:13:57;11.73;;;10.23;;
50853;SDS011;44154;45.506;-122.806;2023-04-25T06:16:23;12.05;;;10.75;;
50853;SDS011;44154;45.506;-122.806;2023-04-25T06:18:51;13.57;;;10.68;;
50853;SDS011;44154;45.506;-122.806;2023-04-25T06:21:17;12.75;;;10.85;;
50853;SDS011;44154;45.506;-122.806;2023-04-25T06:23:43;15.20;;;12.10;;
50853;SDS011;44154;45.506;-122.806;2023-04-25T06:26:09;14.38;;;11.25;;
50853;SDS011;44154;45.506;-122.806;2023-04-25T06:28:35;13.98;;;10.90;;
50853;SDS011;44154;45.506;-122.806;2023-04-25T06:31:02;14.95;;;11.27;;
50853;SDS011;44154;45.506;-122.806;2023-04-25T06:33:28;13.35;;;10.68;;
50853;SDS011;44154;45.506;-122.806;2023-04-25T06:35:54;11.70;;;10.15;;
50853;SDS011;44154;45.506;-122.806;2023-04-25T06:38:20;11.05;;;9.60;;
50853;SDS011;44154;45.506;-122.806;2023-04-25T06:40:47;11.32;;;8.63;;
50853;SDS011;44154;45.506;-122.806;2023-04-25T06:43:13;11.15;;;9.15;;
50853;SDS011;44154;45.506;-122.806;2023-04-25T06:45:39;13.25;;;9.18;;
50853;SDS011;44154;45.506;-122.806;2023-04-25T06:48:05;11.38;;;9.27;;
50853;SDS011;44154;45.506;-122.806;2023-04-25T06:50:32;13.80;;;9.63;;
50853;SDS011;44154;45.506;-122.806;2023-04-25T06:52:58;16.13;;;9.85;;
50853;SDS011;44154;45.506;-122.806;2023-04-25T06:55:26;14.00;;;8.77;;
50853;SDS011;44154;45.506;-122.806;2023-04-25T06:57:53;12.35;;;9.88;;
50853;SDS011;44154;45.506;-122.806;2023-04-25T07:00:20;13.63;;;10.70;;
50853;SDS011;44154;45.506;-122.806;2023-04-25T07:02:46;12.10;;;9.00;;
50853;SDS011;44154;45.506;-122.806;2023-04-25T07:05:12;11.82;;;8.98;;
50853;SDS011;44154;45.506;-122.806;2023-04-25T07:07:38;11.32;;;8.80;;
50853;SDS011;44154;45.506;-122.806;2023-04-25T07:10:05;9.57;;;7.60;;
50853;SDS011;44154;45.506;-122.806;2023-04-25T07:12:32;9.80;;;7.38;;
50853;SDS011;44154;45.506;-122.806;2023-04-25T07:14:58;9.93;;;7.68;;
50853;SDS011;44154;45.506;-122.806;2023-04-25T07:17:24;9.90;;;7.93;;
50853;SDS011;44154;45.506;-122.806;2023-04-25T07:19:50;9.35;;;7.20;;
50853;SDS011;44154;45.506;-122.806;2023-04-25T07:22:17;10.13;;;7.30;;
50853;SDS011;44154;45.506;-122.806;2023-04-25T07:24:43;9.80;;;7.57;;
50853;SDS011;44154;45.506;-122.806;2023-04-25T07:27:13;9.38;;;7.78;;
50853;SDS011;44154;45.506;-122.806;2023-04-25T07:29:40;8.15;;;6.93;;
50853;SDS011;44154;45.506;-122.806;2023-04-25T07:32:07;13.18;;;8.40;;
50853;SDS011;44154;45.506;-122.806;2023-04-25T07:34:33;10.27;;;7.95;;
50853;SDS011;44154;45.506;-122.806;2023-04-25T07:37:02;10.48;;;8.63;;
50853;SDS011;44154;45.506;-122.806;2023-04-25T07:39:28;10.88;;;8.18;;
50853;SDS011;44154;45.506;-122.806;2023-04-25T07:41:54;9.82;;;8.43;;
50853;SDS011;44154;45.506;-122.806;2023-04-25T07:44:21;9.63;;;8.27;;
50853;SDS011;44154;45.506;-122.806;2023-04-25T07:46:47;10.27;;;7.65;;
50853;SDS011;44154;45.506;-122.806;2023-04-25T07:49:13;11.95;;;7.70;;
50853;SDS011;44154;45.506;-122.806;2023-04-25T07:51:40;11.00;;;8.18;;
50853;SDS011;44154;45.506;-122.806;2023-04-25T07:54:09;9.25;;;7.78;;
50853;SDS011;44154;45.506;-122.806;2023-04-25T07:56:35;10.05;;;7.55;;
50853;SDS011;44154;45.506;-122.806;2023-04-25T07:59:01;10.30;;;7.88;;
50853;SDS011;44154;45.506;-122.806;2023-04-25T08:01:28;9.73;;;7.93;;
50853;SDS011;44154;45.506;-122.806;2023-04-25T08:03:54;10.40;;;7.75;;
50853;SDS011;44154;45.506;-122.806;2023-04-25T08:06:20;9.85;;;7.63;;
50853;SDS011;44154;45.506;-122.806;2023-04-25T08:08:46;10.63;;;7.70;;
50853;SDS011;44154;45.506;-122.806;2023-04-25T08:11:12;8.82;;;7.20;;
50853;SDS011;44154;45.506;-122.806;2023-04-25T08:13:38;10.13;;;7.22;;
50853;SDS011;44154;45.506;-122.806;2023-04-25T08:16:05;8.88;;;6.82;;
50853;SDS011;44154;45.506;-122.806;2023-04-25T08:18:31;9.20;;;7.00;;
50853;SDS011;44154;45.506;-122.806;2023-04-25T08:20:57;9.55;;;6.47;;
50853;SDS011;44154;45.506;-122.806;2023-04-25T08:23:23;9.60;;;7.13;;
50853;SDS011;44154;45.506;-122.806;2023-04-25T08:25:49;8.60;;;6.82;;
50853;SDS011;44154;45.506;-122.806;2023-04-25T08:28:16;8.55;;;6.70;;
50853;SDS011;44154;45.506;-122.806;2023-04-25T08:30:42;10.82;;;8.18;;
50853;SDS011;44154;45.506;-122.806;2023-04-25T08:33:08;9.75;;;8.10;;
50853;SDS011;44154;45.506;-122.806;2023-04-25T08:35:36;8.10;;;6.93;;
50853;SDS011;44154;45.506;-122.806;2023-04-25T08:38:02;10.27;;;8.02;;
50853;SDS011;44154;45.506;-122.806;2023-04-25T08:40:28;8.57;;;6.68;;
50853;SDS011;44154;45.506;-122.806;2023-04-25T08:42:58;8.75;;;5.88;;
50853;SDS011;44154;45.506;-122.806;2023-04-25T08:45:27;8.13;;;6.07;;
50853;SDS011;44154;45.506;-122.806;2023-04-25T08:47:55;10.50;;;6.95;;
50853;SDS011;44154;45.506;-122.806;2023-04-25T08:50:23;9.10;;;6.50;;
50853;SDS011;44154;45.506;-122.806;2023-04-25T08:52:52;7.38;;;5.82;;
50853;SDS011;44154;45.506;-122.806;2023-04-25T08:55:21;8.93;;;5.72;;
50853;SDS011;44154;45.506;-122.806;2023-04-25T08:57:48;8.60;;;5.60;;
50853;SDS011;44154;45.506;-122.806;2023-04-25T09:00:15;7.70;;;6.00;;
50853;SDS011;44154;45.506;-122.806;2023-04-25T09:02:42;7.60;;;5.65;;
50853;SDS011;44154;45.506;-122.806;2023-04-25T09:05:08;10.60;;;6.28;;
50853;SDS011;44154;45.506;-122.806;2023-04-25T09:07:37;7.97;;;5.55;;
50853;SDS011;44154;45.506;-122.806;2023-04-25T09:10:04;7.72;;;5.18;;
50853;SDS011;44154;45.506;-122.806;2023-04-25T09:12:30;7.50;;;4.57;;
50853;SDS011;44154;45.506;-122.806;2023-04-25T09:17:30;7.75;;;5.55;;
50853;SDS011;44154;45.506;-122.806;2023-04-25T09:20:07;7.55;;;5.65;;
50853;SDS011;44154;45.506;-122.806;2023-04-25T09:22:35;6.28;;;4.30;;
50853;SDS011;44154;45.506;-122.806;2023-04-25T09:25:02;7.72;;;4.50;;
50853;SDS011;44154;45.506;-122.806;2023-04-25T09:27:33;6.70;;;4.30;;
50853;SDS011;44154;45.506;-122.806;2023-04-25T09:30:00;7.93;;;4.75;;
50853;SDS011;44154;45.506;-122.806;2023-04-25T09:32:26;6.95;;;4.55;;
50853;SDS011;44154;45.506;-122.806;2023-04-25T09:34:53;7.13;;;4.25;;
50853;SDS011;44154;45.506;-122.806;2023-04-25T09:37:22;7.38;;;4.25;;
50853;SDS011;44154;45.506;-122.806;2023-04-25T09:39:50;5.82;;;3.78;;
50853;SDS011;44154;45.506;-122.806;2023-04-25T09:42:21;6.75;;;4.20;;
50853;SDS011;44154;45.506;-122.806;2023-04-25T09:44:52;5.70;;;4.18;;
50853;SDS011;44154;45.506;-122.806;2023-04-25T09:47:19;6.88;;;4.20;;
50853;SDS011;44154;45.506;-122.806;2023-04-25T09:49:49;5.88;;;3.78;;
50853;SDS011;44154;45.506;-122.806;2023-04-25T09:52:19;5.80;;;4.32;;
50853;SDS011;44154;45.506;-122.806;2023-04-25T09:54:48;6.95;;;4.18;;
50853;SDS011;44154;45.506;-122.806;2023-04-25T09:59:46;7.10;;;3.75;;
50853;SDS011;44154;45.506;-122.806;2023-04-25T10:02:20;6.13;;;3.40;;
50853;SDS011;44154;45.506;-122.806;2023-04-25T10:04:49;7.78;;;3.45;;
50853;SDS011;44154;45.506;-122.806;2023-04-25T10:07:20;5.05;;;3.10;;
50853;SDS011;44154;45.506;-122.806;2023-04-25T10:09:53;4.45;;;3.03;;
50853;SDS011;44154;45.506;-122.806;2023-04-25T10:12:26;5.15;;;3.17;;
50853;SDS011;44154;45.506;-122.806;2023-04-25T10:14:52;5.15;;;2.92;;
50853;SDS011;44154;45.506;-122.806;2023-04-25T10:17:19;5.90;;;2.72;;
50853;SDS011;44154;45.506;-122.806;2023-04-25T10:19:47;5.70;;;3.10;;
50853;SDS011;44154;45.506;-122.806;2023-04-25T10:22:26;4.72;;;2.80;;
50853;SDS011;44154;45.506;-122.806;2023-04-25T10:24:58;5.15;;;2.85;;
50853;SDS011;44154;45.506;-122.806;2023-04-25T10:27:26;5.43;;;2.78;;
50853;SDS011;44154;45.506;-122.806;2023-04-25T10:30:09;5.10;;;2.72;;
50853;SDS011;44154;45.506;-122.806;2023-04-25T10:32:42;5.80;;;2.90;;
50853;SDS011;44154;45.506;-122.806;2023-04-25T10:35:23;5.03;;;2.80;;
50853;SDS011;44154;45.506;-122.806;2023-04-25T10:38:04;5.32;;;2.72;;
50853;SDS011;44154;45.506;-122.806;2023-04-25T10:40:34;4.45;;;2.17;;
50853;SDS011;44154;45.506;-122.806;2023-04-25T10:43:32;4.63;;;2.45;;
50853;SDS011;44154;45.506;-122.806;2023-04-25T10:46:12;5.22;;;2.67;;
50853;SDS011;44154;45.506;-122.806;2023-04-25T10:48:51;3.25;;;2.33;;
50853;SDS011;44154;45.506;-122.806;2023-04-25T10:51:24;3.92;;;2.60;;
50853;SDS011;44154;45.506;-122.806;2023-04-25T10:56:42;4.13;;;2.10;;
50853;SDS011;44154;45.506;-122.806;2023-04-25T10:59:19;3.63;;;2.33;;
50853;SDS011;44154;45.506;-122.806;2023-04-25T11:01:47;3.28;;;1.88;;
50853;SDS011;44154;45.506;-122.806;2023-04-25T11:04:28;4.15;;;2.33;;
50853;SDS011;44154;45.506;-122.806;2023-04-25T11:10:01;3.17;;;1.65;;
50853;SDS011;44154;45.506;-122.806;2023-04-25T11:12:31;5.00;;;2.03;;
50853;SDS011;44154;45.506;-122.806;2023-04-25T11:14:58;4.22;;;2.08;;
50853;SDS011;44154;45.506;-122.806;2023-04-25T11:17:29;3.38;;;1.73;;
50853;SDS011;44154;45.506;-122.806;2023-04-25T11:19:56;4.60;;;2.33;;
50853;SDS011;44154;45.506;-122.806;2023-04-25T11:22:22;4.00;;;2.15;;
50853;SDS011;44154;45.506;-122.806;2023-04-25T11:24:49;2.85;;;1.70;;
50853;SDS011;44154;45.506;-122.806;2023-04-25T11:27:16;3.47;;;1.77;;
50853;SDS011;44154;45.506;-122.806;2023-04-25T11:29:42;3.35;;;1.52;;
50853;SDS011;44154;45.506;-122.806;2023-04-25T11:32:08;5.18;;;2.25;;
50853;SDS011;44154;45.506;-122.806;2023-04-25T11:34:35;3.60;;;1.52;;
50853;SDS011;44154;45.506;-122.806;2023-04-25T11:37:01;3.80;;;1.60;;
50853;SDS011;44154;45.506;-122.806;2023-04-25T11:39:28;3.83;;;1.60;;
50853;SDS011;44154;45.506;-122.806;2023-04-25T11:41:55;3.25;;;1.40;;
50853;SDS011;44154;45.506;-122.806;2023-04-25T11:44:21;3.40;;;1.65;;
50853;SDS011;44154;45.506;-122.806;2023-04-25T11:46:48;3.47;;;1.58;;
50853;SDS011;44154;45.506;-122.806;2023-04-25T11:49:14;3.22;;;1.50;;
50853;SDS011;44154;45.506;-122.806;2023-04-25T11:51:46;3.45;;;1.40;;
50853;SDS011;44154;45.506;-122.806;2023-04-25T11:54:13;3.08;;;1.50;;
50853;SDS011;44154;45.506;-122.806;2023-04-25T11:56:44;2.90;;;1.30;;
50853;SDS011;44154;45.506;-122.806;2023-04-25T11:59:11;2.42;;;1.30;;
50853;SDS011;44154;45.506;-122.806;2023-04-25T12:01:39;2.50;;;1.08;;
50853;SDS011;44154;45.506;-122.806;2023-04-25T12:06:47;3.38;;;1.50;;
50853;SDS011;44154;45.506;-122.806;2023-04-25T12:09:17;3.38;;;1.35;;
50853;SDS011;44154;45.506;-122.806;2023-04-25T12:11:47;3.05;;;1.52;;
50853;SDS011;44154;45.506;-122.806;2023-04-25T12:14:25;3.78;;;1.60;;
50853;SDS011;44154;45.506;-122.806;2023-04-25T12:16:55;3.05;;;1.35;;
50853;SDS011;44154;45.506;-122.806;2023-04-25T12:19:26;2.92;;;1.25;;
50853;SDS011;44154;45.506;-122.806;2023-04-25T12:21:58;2.30;;;1.33;;
50853;SDS011;44154;45.506;-122.806;2023-04-25T12:24:26;3.75;;;1.42;;
50853;SDS011;44154;45.506;-122.806;2023-04-25T12:26:59;2.40;;;1.08;;
50853;SDS011;44154;45.506;-122.806;2023-04-25T12:29:28;3.03;;;1.10;;
50853;SDS011;44154;45.506;-122.806;2023-04-25T12:31:56;3.00;;;1.17;;
50853;SDS011;44154;45.506;-122.806;2023-04-25T12:34:23;3.67;;;1.35;;
50853;SDS011;44154;45.506;-122.806;2023-04-25T12:36:51;2.45;;;1.05;;
50853;SDS011;44154;45.506;-122.806;2023-04-25T12:39:18;4.85;;;1.65;;
50853;SDS011;44154;45.506;-122.806;2023-04-25T12:41:47;2.58;;;0.90;;
50853;SDS011;44154;45.506;-122.806;2023-04-25T12:44:14;2.33;;;1.00;;
50853;SDS011;44154;45.506;-122.806;2023-04-25T12:46:40;3.30;;;0.90;;
50853;SDS011;44154;45.506;-122.806;2023-04-25T12:49:07;2.58;;;0.95;;
50853;SDS011;44154;45.506;-122.806;2023-04-25T12:51:34;4.22;;;1.48;;
50853;SDS011;44154;45.506;-122.806;2023-04-25T12:54:01;2.70;;;1.10;;
50853;SDS011;44154;45.506;-122.806;2023-04-25T12:56:28;2.60;;;1.13;;
50853;SDS011;44154;45.506;-122.806;2023-04-25T12:58:55;2.78;;;1.20;;
50853;SDS011;44154;45.506;-122.806;2023-04-25T13:01:22;2.88;;;1.00;;
50853;SDS011;44154;45.506;-122.806;2023-04-25T13:03:49;3.97;;;1.35;;
50853;SDS011;44154;45.506;-122.806;2023-04-25T13:06:16;2.50;;;1.10;;
50853;SDS011;44154;45.506;-122.806;2023-04-25T13:08:43;1.50;;;0.77;;
50853;SDS011;44154;45.506;-122.806;2023-04-25T13:11:09;3.15;;;1.00;;
50853;SDS011;44154;45.506;-122.806;2023-04-25T13:13:36;2.38;;;1.05;;
50853;SDS011;44154;45.506;-122.806;2023-04-25T13:16:03;3.17;;;1.20;;
50853;SDS011;44154;45.506;-122.806;2023-04-25T13:18:30;3.53;;;0.88;;
50853;SDS011;44154;45.506;-122.806;2023-04-25T13:20:57;2.25;;;0.77;;
50853;SDS011;44154;45.506;-122.806;2023-04-25T13:23:28;2.90;;;1.05;;
50853;SDS011;44154;45.506;-122.806;2023-04-25T13:25:55;2.33;;;0.93;;
50853;SDS011;44154;45.506;-122.806;2023-04-25T13:28:25;2.22;;;0.73;;
50853;SDS011;44154;45.506;-122.806;2023-04-25T13:30:52;3.05;;;0.98;;
50853;SDS011;44154;45.506;-122.806;2023-04-25T13:33:19;4.03;;;1.05;;
50853;SDS011;44154;45.506;-122.806;2023-04-25T13:35:46;3.45;;;0.77;;
50853;SDS011;44154;45.506;-122.806;2023-04-25T13:38:21;2.60;;;1.05;;
50853;SDS011;44154;45.506;-122.806;2023-04-25T13:40:51;2.30;;;0.70;;
50853;SDS011;44154;45.506;-122.806;2023-04-25T13:43:20;3.45;;;1.15;;
50853;SDS011;44154;45.506;-122.806;2023-04-25T13:45:48;2.95;;;0.90;;
50853;SDS011;44154;45.506;-122.806;2023-04-25T13:48:15;3.10;;;0.93;;
50853;SDS011;44154;45.506;-122.806;2023-04-25T13:50:41;3.35;;;0.93;;
50853;SDS011;44154;45.506;-122.806;2023-04-25T13:53:07;4.28;;;1.33;;
50853;SDS011;44154;45.506;-122.806;2023-04-25T13:55:34;3.88;;;1.35;;
50853;SDS011;44154;45.506;-122.806;2023-04-25T13:58:02;3.33;;;0.95;;
50853;SDS011;44154;45.506;-122.806;2023-04-25T14:00:33;2.95;;;0.98;;
50853;SDS011;44154;45.506;-122.806;2023-04-25T14:03:01;2.63;;;0.73;;
50853;SDS011;44154;45.506;-122.806;2023-04-25T14:05:30;4.93;;;1.23;;
50853;SDS011;44154;45.506;-122.806;2023-04-25T14:07:56;3.35;;;1.08;;
50853;SDS011;44154;45.506;-122.806;2023-04-25T14:10:22;4.03;;;1.13;;
50853;SDS011;44154;45.506;-122.806;2023-04-25T14:12:49;4.07;;;1.13;;
50853;SDS011;44154;45.506;-122.806;2023-04-25T14:15:15;4.45;;;1.20;;
50853;SDS011;44154;45.506;-122.806;2023-04-25T14:17:41;3.80;;;1.08;;